Annabella — PF3063 — position and weather

sailwx.info

Track history (hours):
 
Tides and Currents Weather Stations Pressure Air Temp Water Temp Dewpoint Dewpoint Depression Visibility Wind Speed Wind Dir Waves Ship Positions

Annabella

Last reported at 2014-Sep-21 13:29 UTC. Time now 2014-Nov-28 13:23 UTC.
Position N 52°46' E 005°06'.
Warning: this ship's position is months out of date.

Length 20 m; draft 2.6 m.

Type: Sailing vessel. MMSI: 244030764.

Date/timePositionNaut miles runAvg speedWind from/ knotsBaromVisibWave heightAir tempDewpointWater temp
2014-Sep-21 13:29N 52°46' E 005°06'0 0.0
2014-Sep-21 12:33N 52°46' E 005°06'0 0.0
2014-Sep-21 11:33N 52°46' E 005°06'0 0.0
2014-Sep-21 10:33N 52°46' E 005°06'0 0.0
2014-Sep-21 09:33N 52°46' E 005°06'0 0.0
2014-Sep-21 08:34N 52°46' E 005°06'0 0.0
2014-Sep-21 07:33N 52°46' E 005°06'0 0.0
2014-Sep-21 06:33N 52°46' E 005°06'0 0.0
2014-Sep-21 05:34N 52°46' E 005°06'0 0.0
2014-Sep-21 04:34N 52°46' E 005°06'0 0.0
2014-Sep-21 03:33N 52°46' E 005°06'0 0.0
2014-Sep-21 02:34N 52°46' E 005°06'0 0.0
2014-Sep-21 01:34N 52°46' E 005°06'0 0.0
2014-Sep-21 00:34N 52°46' E 005°06'0 0.0
2014-Sep-20 23:34N 52°46' E 005°06'0 0.0
2014-Sep-20 22:33N 52°46' E 005°06'0 0.0
2014-Sep-20 21:33N 52°46' E 005°06'0 0.0
2014-Sep-20 20:34N 52°46' E 005°06'0 0.0
2014-Sep-20 19:34N 52°46' E 005°06'0 0.0
2014-Sep-20 18:34N 52°46' E 005°06'0 0.0
2014-Sep-20 17:33N 52°46' E 005°06'0 0.0
2014-Sep-20 16:33N 52°46' E 005°06'0 0.0
2014-Sep-20 15:33N 52°46' E 005°06'0 0.0
2014-Sep-20 14:34N 52°46' E 005°06'0 0.0
2014-Sep-20 13:33N 52°46' E 005°06'0 0.0
2014-Sep-20 12:33N 52°46' E 005°06'  
2014-Sep-14 18:17N 52°46' E 005°06'3 4.5
2014-Sep-14 17:34N 52°46' E 005°11'5 5.4
2014-Sep-14 16:34N 52°42' E 005°18'3 3.5
2014-Sep-14 15:34N 52°39' E 005°16'6 6.0
2014-Sep-14 14:33N 52°33' E 005°14'6 6.2
2014-Sep-14 13:33N 52°27' E 005°10'6 6.3
2014-Sep-14 12:33N 52°23' E 005°03'3 3.2
2014-Sep-14 11:34N 52°23' E 004°58'4 3.8
2014-Sep-14 10:34N 52°25' E 004°52'6 6.3
2014-Sep-14 09:33N 52°26' E 004°42'4 4.3
2014-Sep-14 08:33N 52°28' E 004°35'1 0.1
2014-Sep-13 21:33N 52°28' E 004°34'0 0.0
2014-Sep-13 20:33N 52°28' E 004°34'0 0.0
2014-Sep-13 19:33N 52°28' E 004°34'0 0.0
2014-Sep-13 18:33N 52°28' E 004°34'0 0.0
2014-Sep-13 17:33N 52°28' E 004°34'0 0.0
2014-Sep-13 16:33N 52°28' E 004°34'4 3.6
2014-Sep-13 15:33N 52°26' E 004°29'6 5.9
2014-Sep-13 14:33N 52°22' E 004°21'6 5.6
2014-Sep-13 13:33N 52°20' E 004°13'5 5.2
2014-Sep-13 12:33N 52°18' E 004°05'5 4.9
2014-Sep-13 11:33N 52°16' E 003°58'54 5.3
2014-Sep-13 01:24N 51°41' E 002°51'4 4.3
2014-Sep-13 00:32N 51°37' E 002°49'10 3.5
2014-Sep-12 21:31N 51°34' E 002°33'7 3.5
2014-Sep-12 19:33N 51°28' E 002°29'6 6.1
2014-Sep-12 18:33N 51°22' E 002°30'5 5.3
2014-Sep-12 17:32N 51°19' E 002°23'70 5.4
2014-Sep-12 04:32N 50°47' E 000°43'5 5.2
2014-Sep-12 03:33N 50°45' E 000°35'3 3.2
2014-Sep-12 02:33N 50°44' E 000°31'5 5.4
2014-Sep-12 01:33N 50°43' E 000°22'  
Track history (hours):
 
Tides and Currents Weather Stations Pressure Air Temp Water Temp Dewpoint Dewpoint Depression Visibility Wind Speed Wind Dir Waves Ship Positions

Annabella

Last reported at 2014-Sep-21 13:29 UTC. Time now 2014-Nov-28 13:23 UTC.
Position N 52°46' E 005°06'.
Warning: this ship's position is months out of date.

Length 20 m; draft 2.6 m.

Type: Sailing vessel. MMSI: 244030764.

Date/timePositionNaut miles runAvg speedWind from/ knotsBaromVisibWave heightAir tempDewpointWater temp
2014-Sep-21 13:29N 52°46' E 005°06'0 0.0
2014-Sep-21 12:33N 52°46' E 005°06'0 0.0
2014-Sep-21 11:33N 52°46' E 005°06'0 0.0
2014-Sep-21 10:33N 52°46' E 005°06'0 0.0
2014-Sep-21 09:33N 52°46' E 005°06'0 0.0
2014-Sep-21 08:34N 52°46' E 005°06'0 0.0
2014-Sep-21 07:33N 52°46' E 005°06'0 0.0
2014-Sep-21 06:33N 52°46' E 005°06'0 0.0
2014-Sep-21 05:34N 52°46' E 005°06'0 0.0
2014-Sep-21 04:34N 52°46' E 005°06'0 0.0
2014-Sep-21 03:33N 52°46' E 005°06'0 0.0
2014-Sep-21 02:34N 52°46' E 005°06'0 0.0
2014-Sep-21 01:34N 52°46' E 005°06'0 0.0
2014-Sep-21 00:34N 52°46' E 005°06'0 0.0
2014-Sep-20 23:34N 52°46' E 005°06'0 0.0
2014-Sep-20 22:33N 52°46' E 005°06'0 0.0
2014-Sep-20 21:33N 52°46' E 005°06'0 0.0
2014-Sep-20 20:34N 52°46' E 005°06'0 0.0
2014-Sep-20 19:34N 52°46' E 005°06'0 0.0
2014-Sep-20 18:34N 52°46' E 005°06'0 0.0
2014-Sep-20 17:33N 52°46' E 005°06'0 0.0
2014-Sep-20 16:33N 52°46' E 005°06'0 0.0
2014-Sep-20 15:33N 52°46' E 005°06'0 0.0
2014-Sep-20 14:34N 52°46' E 005°06'0 0.0
2014-Sep-20 13:33N 52°46' E 005°06'0 0.0
2014-Sep-20 12:33N 52°46' E 005°06'  
2014-Sep-14 18:17N 52°46' E 005°06'3 4.5
2014-Sep-14 17:34N 52°46' E 005°11'5 5.4
2014-Sep-14 16:34N 52°42' E 005°18'3 3.5
2014-Sep-14 15:34N 52°39' E 005°16'6 6.0
2014-Sep-14 14:33N 52°33' E 005°14'6 6.2
2014-Sep-14 13:33N 52°27' E 005°10'6 6.3
2014-Sep-14 12:33N 52°23' E 005°03'3 3.2
2014-Sep-14 11:34N 52°23' E 004°58'4 3.8
2014-Sep-14 10:34N 52°25' E 004°52'6 6.3
2014-Sep-14 09:33N 52°26' E 004°42'4 4.3
2014-Sep-14 08:33N 52°28' E 004°35'1 0.1
2014-Sep-13 21:33N 52°28' E 004°34'0 0.0
2014-Sep-13 20:33N 52°28' E 004°34'0 0.0
2014-Sep-13 19:33N 52°28' E 004°34'0 0.0
2014-Sep-13 18:33N 52°28' E 004°34'0 0.0
2014-Sep-13 17:33N 52°28' E 004°34'0 0.0
2014-Sep-13 16:33N 52°28' E 004°34'4 3.6
2014-Sep-13 15:33N 52°26' E 004°29'6 5.9
2014-Sep-13 14:33N 52°22' E 004°21'6 5.6
2014-Sep-13 13:33N 52°20' E 004°13'5 5.2
2014-Sep-13 12:33N 52°18' E 004°05'5 4.9
2014-Sep-13 11:33N 52°16' E 003°58'54 5.3
2014-Sep-13 01:24N 51°41' E 002°51'4 4.3
2014-Sep-13 00:32N 51°37' E 002°49'10 3.5
2014-Sep-12 21:31N 51°34' E 002°33'7 3.5
2014-Sep-12 19:33N 51°28' E 002°29'6 6.1
2014-Sep-12 18:33N 51°22' E 002°30'5 5.3
2014-Sep-12 17:32N 51°19' E 002°23'70 5.4
2014-Sep-12 04:32N 50°47' E 000°43'5 5.2
2014-Sep-12 03:33N 50°45' E 000°35'3 3.2
2014-Sep-12 02:33N 50°44' E 000°31'5 5.4
2014-Sep-12 01:33N 50°43' E 000°22'  

Dump ship's entire track history